Погода Аль-Бураимина неделю

Салала, Оман

24 - 30 июля
  • 24июля
    Сегодня
    +32°
    +44°
    Ясно и безоблачно
    ВремяПогодаТемператураВлажностьДавлениеВетер, м/сВероятность осадков
    01:00Ясно и безоблачно+33°C62 %724 мм2.1 м/с1 %
    04:00Ясно и безоблачно+31°C72 %723 мм1.8 м/с1 %
    07:00Практически безоблачно+33°C68 %724 мм1.9 м/с1 %
    10:00Небольшая облачность+35°C29 %724 мм3.3 м/с1 %
    13:00Ясно и безоблачно+41°C14 %723 мм4.6 м/с1 %
    16:00Ясно и безоблачно+43°C11 %722 мм6.0 м/с1 %
    19:00Ясно и безоблачно+41°C15 %722 мм5.0 м/с1 %
    22:00Ясно и безоблачно+36°C24 %723 мм2.1 м/с1 %
  • 25июля
    Четверг
    +32°
    +44°
    Ясно и безоблачно
    ВремяПогодаТемператураВлажностьДавлениеВетер, м/сВероятность осадков
    01:00Практически безоблачно+34°C28 %722 мм1.6 м/с1 %
    04:00Ясно и безоблачно+32°C26 %721 мм1.7 м/с1 %
    07:00Ясно и безоблачно+34°C21 %722 мм1.7 м/с1 %
    10:00Ясно и безоблачно+40°C13 %723 мм3.4 м/с1 %
    13:00Ясно и безоблачно+44°C10 %722 мм4.7 м/с1 %
    16:00Практически безоблачно+44°C12 %721 мм6.1 м/с1 %
    19:00Ясно и безоблачно+41°C15 %722 мм5.1 м/с1 %
    22:00Ясно и безоблачно+37°C21 %723 мм1.9 м/с1 %
  • 26июля
    Пятница
    +32°
    +45°
    Практически безоблачно
    ВремяПогодаТемператураВлажностьДавлениеВетер, м/сВероятность осадков
    01:00Ясно и безоблачно+34°C24 %722 мм1.1 м/с1 %
    04:00Небольшая облачность+33°C27 %722 мм1.6 м/с1 %
    07:00Небольшая облачность+35°C28 %723 мм1.6 м/с1 %
    10:00Практически безоблачно+40°C21 %724 мм3.8 м/с1 %
    13:00Практически безоблачно+43°C19 %723 мм5.1 м/с1 %
    16:00Практически безоблачно+44°C11 %722 мм6.2 м/с1 %
    19:00Практически безоблачно+42°C14 %723 мм5.6 м/с1 %
    22:00Ясно и безоблачно+37°C25 %725 мм2.0 м/с1 %
  • 27июля
    Суббота
    +31°
    +45°
    Облачно с прояснениями
    ВремяПогодаТемператураВлажностьДавлениеВетер, м/сВероятность осадков
    01:00Небольшая облачность+34°C29 %724 мм1.7 м/с1 %
    04:00Небольшая облачность+34°C24 %724 мм1.5 м/с1 %
    07:00Практически безоблачно+35°C23 %725 мм1.6 м/с1 %
    10:00Практически безоблачно+41°C15 %726 мм3.4 м/с1 %
    13:00Облачно с прояснениями+44°C12 %725 мм5.0 м/с1 %
    16:00Ясно и безоблачно+45°C12 %724 мм5.7 м/с1 %
    19:00Ясно и безоблачно+42°C18 %725 мм5.6 м/с1 %
    22:00Ясно и безоблачно+37°C26 %726 мм2.5 м/с1 %
  • 28июля
    Воскресенье
    +30°
    +46°
    Небольшая облачность
    ВремяПогодаТемператураВлажностьДавлениеВетер, м/сВероятность осадков
    01:00Практически безоблачно+35°C30 %725 мм1.7 м/с1 %
    04:00Ясно и безоблачно+33°C36 %724 мм1.2 м/с1 %
    07:00Ясно и безоблачно+34°C41 %725 мм2.8 м/с1 %
    10:00Ясно и безоблачно+39°C32 %726 мм3.9 м/с1 %
    13:00Небольшая облачность+44°C20 %724 мм4.5 м/с1 %
    16:00Ясно и безоблачно+45°C19 %723 мм5.4 м/с1 %
    19:00Ясно и безоблачно+41°C35 %723 мм5.8 м/с1 %
    22:00Ясно и безоблачно+35°C51 %724 мм3.4 м/с1 %
Мы используем cookies
Соглашаюсь